Time;durP1;ratioP1;P1;durP2;ratioP2;P2;SDS_P1;SDS_P2;PMS_P1;PMS_P2;Temp;Humidity;BMP_temperature;BMP_pressure;BME280_temperature;BME280_humidity;BME280_pressure;Samples;Min_cycle;Max_cycle;Signal;HPM_P1;HPM_P2
2021/05/26 00:02:39;;;;;;;13.13;4.40;;;11.70;95.30;;;;;;8340011;28;20528;-77
2021/05/26 00:06:40;;;;;;;10.43;4.73;;;11.70;95.30;;;;;;8326987;28;20188;-77
2021/05/26 00:10:40;;;;;;;10.63;4.27;;;11.70;95.30;;;;;;8331358;28;20505;-75
2021/05/26 00:14:42;;;;;;;4.00;3.30;;;11.80;95.50;;;;;;8316511;28;20458;-76
2021/05/26 00:18:51;;;;;;;12.40;4.23;;;11.80;95.00;;;;;;8322760;28;20268;-75
2021/05/26 00:22:52;;;;;;;7.53;3.70;;;11.80;95.00;;;;;;8313678;28;20533;-77
2021/05/26 00:26:53;;;;;;;13.93;3.60;;;11.90;94.90;;;;;;8316339;28;20443;-77
2021/05/26 00:30:55;;;;;;;6.10;4.57;;;11.90;95.00;;;;;;8324546;28;20189;-77
2021/05/26 00:34:56;;;;;;;6.70;3.20;;;11.90;94.80;;;;;;8313969;28;20194;-77
2021/05/26 00:38:57;;;;;;;7.77;4.17;;;12.00;94.80;;;;;;8330772;28;20439;-74
2021/05/26 00:43:00;;;;;;;8.93;5.23;;;12.00;94.80;;;;;;8312469;28;20294;-76
2021/05/26 00:47:01;;;;;;;8.93;3.87;;;12.10;94.70;;;;;;8320530;28;20192;-76
2021/05/26 00:51:01;;;;;;;6.87;3.93;;;12.10;94.80;;;;;;8307149;28;20870;-76
2021/05/26 00:55:04;;;;;;;9.03;4.87;;;12.10;95.00;;;;;;8327331;28;20211;-76
2021/05/26 00:59:06;;;;;;;10.03;4.00;;;12.10;95.30;;;;;;8314699;28;20219;-76
2021/05/26 01:03:10;;;;;;;5.73;4.23;;;12.00;95.30;;;;;;8314138;28;20473;-77
2021/05/26 01:07:10;;;;;;;9.20;4.50;;;12.00;95.30;;;;;;8315169;28;20446;-76
2021/05/26 01:11:11;;;;;;;3.93;3.50;;;12.00;95.40;;;;;;8312441;28;20453;-76
2021/05/26 01:15:14;;;;;;;4.70;3.63;;;12.00;95.50;;;;;;8313087;28;21293;-76
2021/05/26 01:19:16;;;;;;;8.10;5.80;;;11.90;95.50;;;;;;8331703;28;20184;-76
2021/05/26 01:23:17;;;;;;;6.87;4.47;;;11.90;95.60;;;;;;8316012;28;20466;-76
2021/05/26 01:27:18;;;;;;;9.80;5.17;;;11.90;95.90;;;;;;8313734;28;20440;-76
2021/05/26 01:31:18;;;;;;;9.03;4.97;;;11.80;96.00;;;;;;8330970;28;20465;-76
2021/05/26 01:35:20;;;;;;;6.43;4.90;;;11.80;96.00;;;;;;8311067;28;20439;-77
2021/05/26 01:39:21;;;;;;;6.40;5.20;;;11.80;96.10;;;;;;8307534;28;20191;-76
2021/05/26 01:43:23;;;;;;;7.50;4.93;;;11.80;96.20;;;;;;8332585;28;20463;-76
2021/05/26 01:47:24;;;;;;;10.93;4.77;;;11.70;96.30;;;;;;8321859;28;20179;-77
2021/05/26 01:51:25;;;;;;;12.57;4.77;;;11.70;96.40;;;;;;8309624;28;20451;-76
2021/05/26 01:55:29;;;;;;;7.43;5.30;;;11.70;96.50;;;;;;8311790;28;20442;-77
2021/05/26 01:59:29;;;;;;;9.07;5.17;;;11.70;96.50;;;;;;8315522;28;20648;-76
2021/05/26 02:03:30;;;;;;;7.50;5.13;;;11.70;96.60;;;;;;8312876;28;20978;-77
2021/05/26 02:07:30;;;;;;;10.60;5.60;;;11.70;96.70;;;;;;8328567;28;20682;-77
2021/05/26 02:15:50;;;;;;;12.27;6.67;;;11.60;96.90;;;;;;8329389;28;20206;-77
2021/05/26 02:19:51;;;;;;;12.03;6.10;;;11.60;97.00;;;;;;8316050;28;20446;-77
2021/05/26 02:23:55;;;;;;;11.80;6.50;;;11.60;97.10;;;;;;8331063;28;20227;-77
2021/05/26 02:27:56;;;;;;;10.80;6.80;;;11.60;97.20;;;;;;8332375;28;20490;-77
2021/05/26 02:31:56;;;;;;;13.13;6.67;;;11.60;97.30;;;;;;8312869;28;20461;-77
2021/05/26 02:35:57;;;;;;;9.83;5.00;;;11.70;97.30;;;;;;8321986;28;20220;-77
2021/05/26 02:39:57;;;;;;;7.33;4.70;;;11.60;97.30;;;;;;8316628;28;20192;-77
2021/05/26 02:43:58;;;;;;;10.10;4.50;;;11.60;97.30;;;;;;8312905;28;20225;-77
2021/05/26 02:48:00;;;;;;;11.50;5.10;;;11.60;97.30;;;;;;8330433;28;20208;-77
2021/05/26 02:52:03;;;;;;;8.80;4.47;;;11.60;97.20;;;;;;8313478;28;20460;-77
2021/05/26 02:56:03;;;;;;;5.07;4.27;;;11.50;97.10;;;;;;8310028;28;20447;-77
2021/05/26 03:00:05;;;;;;;6.30;4.43;;;11.50;97.20;;;;;;8314548;28;20450;-77
2021/05/26 03:04:06;;;;;;;5.67;3.97;;;11.50;96.80;;;;;;8332334;28;20211;-77
2021/05/26 03:08:07;;;;;;;10.30;3.03;;;11.40;96.70;;;;;;8312971;28;20439;-77
2021/05/26 03:12:07;;;;;;;7.13;3.17;;;11.40;96.70;;;;;;8313627;28;20214;-78
2021/05/26 03:16:09;;;;;;;5.43;3.77;;;11.30;96.60;;;;;;8313365;28;20192;-77
2021/05/26 03:20:13;;;;;;;6.87;3.03;;;11.30;96.50;;;;;;8314326;28;20530;-78
2021/05/26 03:24:14;;;;;;;5.70;2.60;;;11.20;96.50;;;;;;8332608;28;20479;-77
2021/05/26 03:28:15;;;;;;;4.90;2.93;;;11.20;96.50;;;;;;8320641;28;20446;-77
2021/05/26 03:32:16;;;;;;;6.63;3.30;;;11.20;96.50;;;;;;8320928;28;20445;-77
2021/05/26 03:36:17;;;;;;;3.90;3.60;;;11.20;96.60;;;;;;8331730;28;20450;-77
2021/05/26 03:40:18;;;;;;;6.33;3.10;;;11.10;96.60;;;;;;8324993;28;20188;-77
2021/05/26 03:44:19;;;;;;;3.97;2.90;;;11.10;96.70;;;;;;8319360;28;20231;-77
2021/05/26 03:48:19;;;;;;;3.93;3.00;;;11.10;96.80;;;;;;8325376;28;20461;-77
2021/05/26 03:52:25;;;;;;;4.70;2.80;;;11.10;96.90;;;;;;8319654;28;20242;-77
2021/05/26 03:56:25;;;;;;;3.57;3.27;;;11.10;97.00;;;;;;8337916;28;20271;-78
2021/05/26 04:00:26;;;;;;;6.07;3.80;;;11.10;97.00;;;;;;8338690;28;20443;-76
2021/05/26 04:04:27;;;;;;;3.63;3.33;;;11.10;97.30;;;;;;8339057;28;20192;-77
2021/05/26 04:08:27;;;;;;;11.50;4.23;;;11.10;97.10;;;;;;8331161;28;20191;-77
2021/05/26 04:12:28;;;;;;;3.70;2.80;;;11.20;97.10;;;;;;8317074;28;20187;-76
2021/05/26 04:16:29;;;;;;;3.00;2.63;;;11.10;97.00;;;;;;8314154;28;20195;-77
2021/05/26 04:20:29;;;;;;;3.90;2.90;;;11.10;96.90;;;;;;8310017;28;20198;-76
2021/05/26 04:24:30;;;;;;;4.60;3.27;;;11.10;96.90;;;;;;8332466;28;20198;-76
2021/05/26 04:28:31;;;;;;;3.10;2.90;;;11.20;97.00;;;;;;8313897;28;20347;-76
2021/05/26 04:32:31;;;;;;;3.00;2.80;;;11.20;96.90;;;;;;8328879;28;20916;-77
2021/05/26 04:36:32;;;;;;;2.63;2.43;;;11.20;96.90;;;;;;8332850;28;20251;-77
2021/05/26 04:40:33;;;;;;;1.93;1.83;;;11.20;96.90;;;;;;8319384;28;20271;-77
2021/05/26 04:44:36;;;;;;;2.53;2.30;;;11.20;96.80;;;;;;8316553;28;20544;-77
2021/05/26 04:48:36;;;;;;;2.30;2.10;;;11.20;96.70;;;;;;8319338;28;20254;-78
2021/05/26 04:52:37;;;;;;;3.20;1.93;;;11.20;96.70;;;;;;8338602;28;20982;-77
2021/05/26 04:56:38;;;;;;;2.80;2.53;;;11.30;96.60;;;;;;8315204;28;20639;-78
2021/05/26 05:00:39;;;;;;;2.40;2.20;;;11.30;96.60;;;;;;8338611;28;20454;-77
2021/05/26 05:04:40;;;;;;;2.20;1.40;;;11.40;96.50;;;;;;8343667;28;20710;-78
2021/05/26 05:08:40;;;;;;;2.60;2.20;;;11.40;96.40;;;;;;8316955;28;20440;-77
2021/05/26 05:12:41;;;;;;;2.50;1.60;;;11.50;96.50;;;;;;8318629;28;20184;-77
2021/05/26 05:16:42;;;;;;;2.30;2.20;;;11.70;96.50;;;;;;8316296;28;20192;-77
2021/05/26 05:20:43;;;;;;;1.80;1.70;;;11.80;96.20;;;;;;8315061;28;20447;-78
2021/05/26 05:24:43;;;;;;;1.53;1.43;;;11.90;96.20;;;;;;8322110;28;20180;-78
2021/05/26 05:28:46;;;;;;;1.37;1.27;;;12.20;96.10;;;;;;8324149;28;20297;-78
2021/05/26 05:32:47;;;;;;;2.40;1.10;;;12.20;95.80;;;;;;8319224;28;20643;-78
2021/05/26 05:36:48;;;;;;;0.97;0.93;;;12.30;95.20;;;;;;8334350;28;20434;-78
2021/05/26 05:40:51;;;;;;;2.50;1.00;;;12.30;95.20;;;;;;8336082;28;20492;-77
2021/05/26 05:44:52;;;;;;;2.73;1.20;;;12.40;94.90;;;;;;8328967;28;20172;-77
2021/05/26 05:48:52;;;;;;;1.73;1.63;;;12.40;94.60;;;;;;8328333;28;20465;-77
2021/05/26 05:52:53;;;;;;;2.30;1.00;;;12.40;94.70;;;;;;8332936;28;20227;-77
2021/05/26 05:56:54;;;;;;;1.00;1.00;;;12.50;94.80;;;;;;8333448;28;20192;-78
2021/05/26 06:00:54;;;;;;;1.30;1.20;;;12.60;94.80;;;;;;8331822;28;20934;-78
2021/05/26 06:04:55;;;;;;;1.90;1.57;;;12.70;94.90;;;;;;8340512;28;20270;-78
2021/05/26 06:08:56;;;;;;;3.17;1.10;;;12.80;94.50;;;;;;8318383;28;20199;-78
2021/05/26 06:12:58;;;;;;;0.90;0.90;;;12.90;94.60;;;;;;8326150;28;20185;-77
2021/05/26 06:16:59;;;;;;;4.00;0.83;;;13.10;94.20;;;;;;8328525;28;20234;-76
2021/05/26 06:20:59;;;;;;;1.20;0.90;;;13.20;94.00;;;;;;8315124;28;20471;-77
2021/05/26 06:25:00;;;;;;;1.17;1.07;;;13.30;94.00;;;;;;8308840;28;20185;-77
2021/05/26 06:29:04;;;;;;;3.87;1.40;;;13.50;94.10;;;;;;8327616;28;20569;-76
2021/05/26 06:33:05;;;;;;;1.23;1.00;;;13.60;93.60;;;;;;8304919;28;20218;-77
2021/05/26 06:37:06;;;;;;;0.77;0.70;;;13.60;93.30;;;;;;8302612;28;20798;-76
2021/05/26 06:41:10;;;;;;;0.90;0.87;;;13.60;93.40;;;;;;8319756;28;20215;-76
2021/05/26 06:45:11;;;;;;;0.90;0.90;;;13.70;93.40;;;;;;8306306;28;20440;-77
2021/05/26 06:49:12;;;;;;;1.67;1.00;;;13.80;93.50;;;;;;8320226;28;20452;-76
2021/05/26 06:53:13;;;;;;;0.87;0.80;;;13.90;93.20;;;;;;8332279;28;20447;-76
2021/05/26 06:57:13;;;;;;;1.13;0.87;;;13.90;93.00;;;;;;8319594;28;20189;-76
2021/05/26 07:01:14;;;;;;;0.90;0.90;;;13.70;92.80;;;;;;8315335;28;20201;-76
2021/05/26 07:05:15;;;;;;;0.90;0.90;;;13.70;93.50;;;;;;8330995;28;20185;-77
2021/05/26 07:09:16;;;;;;;3.50;2.80;;;13.70;93.60;;;;;;8327410;28;20650;-77
2021/05/26 07:13:16;;;;;;;5.87;1.33;;;13.80;93.00;;;;;;8328277;28;20189;-76
2021/05/26 07:17:17;;;;;;;1.20;1.10;;;13.80;93.40;;;;;;8328710;28;20192;-76
2021/05/26 07:21:18;;;;;;;0.97;0.87;;;13.80;93.70;;;;;;8327696;28;20219;-76
2021/05/26 07:25:18;;;;;;;1.00;1.00;;;13.80;93.40;;;;;;8327472;28;20213;-77
2021/05/26 07:29:19;;;;;;;1.30;1.20;;;13.80;93.20;;;;;;8310794;28;20186;-77
2021/05/26 07:33:20;;;;;;;1.33;1.23;;;13.90;93.80;;;;;;8308180;28;20182;-77
2021/05/26 07:37:20;;;;;;;0.80;0.80;;;14.10;93.60;;;;;;8328430;28;20191;-78
2021/05/26 07:41:21;;;;;;;1.00;0.80;;;14.20;93.40;;;;;;8309730;28;20579;-77
2021/05/26 07:45:22;;;;;;;1.83;0.90;;;14.30;93.00;;;;;;8312018;28;20193;-77
2021/05/26 07:49:23;;;;;;;0.80;0.80;;;14.40;93.20;;;;;;8289795;28;1131981;-77
2021/05/26 07:53:24;;;;;;;0.70;0.70;;;14.60;92.90;;;;;;8329960;28;20194;-76
2021/05/26 07:57:25;;;;;;;0.83;0.83;;;14.80;92.30;;;;;;8309718;28;20467;-76
2021/05/26 08:01:26;;;;;;;0.93;0.93;;;15.00;91.90;;;;;;8307308;28;20249;-77
2021/05/26 08:05:27;;;;;;;0.90;0.80;;;15.30;91.90;;;;;;8317008;28;20446;-77
2021/05/26 08:09:27;;;;;;;0.73;0.73;;;15.70;92.60;;;;;;8309627;28;20282;-77
2021/05/26 08:13:28;;;;;;;1.83;1.13;;;16.10;91.80;;;;;;8329370;28;20195;-77
2021/05/26 08:17:28;;;;;;;0.80;0.80;;;16.40;91.40;;;;;;8327308;28;20267;-77
2021/05/26 08:21:29;;;;;;;1.23;1.07;;;16.50;90.60;;;;;;8318856;28;20549;-77
2021/05/26 08:25:30;;;;;;;1.37;1.17;;;16.30;90.60;;;;;;8312233;28;20622;-77
2021/05/26 08:29:33;;;;;;;1.30;1.00;;;16.20;90.70;;;;;;8331265;28;20655;-76
2021/05/26 08:33:34;;;;;;;1.23;0.97;;;16.10;91.10;;;;;;8310626;28;20184;-77
2021/05/26 08:37:35;;;;;;;1.20;1.20;;;16.20;91.90;;;;;;8321820;28;21465;-77
2021/05/26 08:41:35;;;;;;;1.13;1.03;;;16.20;91.60;;;;;;8318006;28;20210;-78
2021/05/26 08:45:36;;;;;;;2.10;0.90;;;16.40;91.30;;;;;;8316711;28;20187;-78
2021/05/26 08:49:43;;;;;;;1.53;1.43;;;16.30;90.40;;;;;;8319162;28;20215;-78
2021/05/26 08:53:44;;;;;;;1.07;0.97;;;16.20;90.70;;;;;;8333018;28;20809;-77
2021/05/26 08:57:44;;;;;;;1.20;1.20;;;16.10;91.00;;;;;;8314499;28;20480;-78
2021/05/26 09:01:48;;;;;;;3.00;1.57;;;15.90;91.10;;;;;;8313424;28;20462;-78
2021/05/26 09:05:53;;;;;;;1.20;1.10;;;15.50;91.70;;;;;;8330165;28;20177;-77
2021/05/26 09:09:58;;;;;;;4.93;1.13;;;15.30;92.30;;;;;;8323316;28;20452;-77
2021/05/26 09:14:11;;;;;;;1.30;1.20;;;15.20;92.80;;;;;;8333897;28;20445;-76
2021/05/26 09:18:11;;;;;;;2.33;1.00;;;15.00;93.50;;;;;;8301617;28;20452;-76
2021/05/26 09:22:15;;;;;;;1.63;1.53;;;14.90;93.90;;;;;;8309265;28;21052;-77
2021/05/26 09:26:15;;;;;;;1.10;1.00;;;14.80;93.70;;;;;;8312282;28;20281;-77
2021/05/26 09:30:30;;;;;;;1.57;1.40;;;14.80;93.80;;;;;;8307156;28;20511;-77
2021/05/26 09:34:39;;;;;;;2.33;1.23;;;14.80;94.20;;;;;;8325623;28;20191;-77
2021/05/26 09:38:52;;;;;;;1.67;1.33;;;14.80;94.10;;;;;;8311643;28;20437;-77
2021/05/26 09:42:53;;;;;;;1.33;0.97;;;14.80;95.00;;;;;;8333861;28;20468;-77
2021/05/26 09:46:54;;;;;;;2.50;1.50;;;15.00;94.70;;;;;;8337518;28;20438;-77
2021/05/26 09:50:54;;;;;;;1.83;1.10;;;15.10;94.50;;;;;;8333940;28;20569;-78
2021/05/26 09:54:55;;;;;;;1.30;1.30;;;15.20;94.50;;;;;;8323522;28;20178;-77
2021/05/26 09:58:56;;;;;;;1.87;1.77;;;15.20;94.50;;;;;;8323944;28;20264;-77
2021/05/26 10:02:57;;;;;;;3.23;1.57;;;15.30;94.20;;;;;;8303183;28;20249;-77
2021/05/26 10:07:04;;;;;;;1.20;1.10;;;15.50;94.30;;;;;;8302772;28;20186;-76
2021/05/26 10:11:05;;;;;;;1.57;1.47;;;15.60;93.70;;;;;;8317827;28;20438;-76
2021/05/26 10:15:12;;;;;;;1.53;1.43;;;15.60;93.20;;;;;;8303600;28;20456;-77
2021/05/26 10:19:14;;;;;;;2.20;1.43;;;15.50;94.10;;;;;;8299924;28;20184;-77
2021/05/26 10:23:19;;;;;;;2.07;1.37;;;15.40;94.40;;;;;;8286215;28;20474;-77
2021/05/26 10:27:39;;;;;;;1.60;1.50;;;15.30;94.80;;;;;;8307372;28;20446;-77
2021/05/26 10:31:42;;;;;;;1.47;1.33;;;15.60;95.40;;;;;;8300897;28;20457;-77
2021/05/26 10:35:57;;;;;;;2.13;1.00;;;16.10;94.40;;;;;;8315889;28;20446;-77
2021/05/26 10:39:58;;;;;;;1.77;1.00;;;16.30;93.90;;;;;;8316103;28;21669;-77
2021/05/26 10:43:58;;;;;;;1.10;1.00;;;16.40;93.70;;;;;;8306894;28;21194;-77
2021/05/26 10:47:59;;;;;;;1.70;1.53;;;16.30;93.60;;;;;;8306616;28;20214;-77
2021/05/26 10:52:01;;;;;;;1.13;0.93;;;16.20;93.00;;;;;;8324243;28;20682;-77
2021/05/26 10:56:02;;;;;;;4.10;1.10;;;15.90;92.60;;;;;;8304153;28;20458;-77
2021/05/26 11:00:27;;;;;;;0.90;0.90;;;15.70;92.80;;;;;;8311080;28;20446;-77
2021/05/26 11:04:29;;;;;;;1.20;1.10;;;15.70;93.80;;;;;;8296123;28;20200;-77
2021/05/26 11:08:34;;;;;;;2.10;1.00;;;15.70;94.10;;;;;;8304357;28;20446;-77
2021/05/26 11:12:57;;;;;;;2.30;0.90;;;15.60;94.00;;;;;;8305545;28;20484;-76
2021/05/26 11:17:01;;;;;;;2.20;1.20;;;15.60;94.50;;;;;;8294804;28;20440;-76
2021/05/26 11:21:01;;;;;;;0.80;0.80;;;15.60;94.40;;;;;;8330805;28;20580;-77
2021/05/26 11:25:02;;;;;;;1.47;1.20;;;15.70;94.20;;;;;;8331459;28;20442;-77
2021/05/26 11:29:04;;;;;;;1.77;1.23;;;15.80;94.10;;;;;;8314054;28;20175;-76
2021/05/26 11:33:09;;;;;;;0.80;0.80;;;15.70;93.70;;;;;;8319094;28;20531;-77
2021/05/26 11:37:11;;;;;;;1.20;1.07;;;15.30;93.90;;;;;;8303229;28;20528;-76
2021/05/26 11:41:16;;;;;;;4.30;1.20;;;14.90;94.50;;;;;;8287226;28;20584;-77
2021/05/26 11:45:18;;;;;;;1.77;1.67;;;14.60;95.50;;;;;;8321582;28;20438;-78
2021/05/26 11:49:25;;;;;;;3.07;1.47;;;14.70;96.40;;;;;;8316173;28;20500;-78
2021/05/26 11:53:26;;;;;;;1.23;1.13;;;15.10;96.60;;;;;;8312758;28;20460;-77
2021/05/26 11:57:38;;;;;;;17.70;1.33;;;15.70;95.70;;;;;;8310624;28;20452;-78
2021/05/26 12:01:43;;;;;;;0.90;0.90;;;16.20;94.80;;;;;;8336133;28;20470;-78
2021/05/26 12:05:52;;;;;;;1.50;1.03;;;16.50;94.10;;;;;;8308963;28;20451;-78
2021/05/26 12:09:59;;;;;;;1.50;1.40;;;16.60;93.10;;;;;;8317706;28;20481;-78
2021/05/26 12:13:59;;;;;;;0.70;0.70;;;16.50;92.30;;;;;;8323456;28;20507;-77
2021/05/26 12:18:01;;;;;;;0.80;0.80;;;16.50;92.40;;;;;;8316608;28;20442;-77
2021/05/26 12:22:10;;;;;;;0.90;0.90;;;16.60;92.30;;;;;;8318667;28;20596;-78
2021/05/26 12:26:27;;;;;;;1.00;1.00;;;16.90;92.40;;;;;;8313374;28;20455;-77
2021/05/26 12:30:28;;;;;;;1.33;0.90;;;17.20;91.60;;;;;;8315191;28;20437;-77
2021/05/26 12:34:35;;;;;;;4.20;1.23;;;17.20;91.20;;;;;;8335742;28;20447;-81
2021/05/26 12:38:39;;;;;;;1.10;1.10;;;16.70;91.20;;;;;;8335956;28;20434;-77
2021/05/26 12:42:41;;;;;;;0.90;0.90;;;16.20;92.10;;;;;;8316160;28;20471;-78
2021/05/26 12:46:43;;;;;;;0.90;0.90;;;15.90;93.00;;;;;;8312012;28;20479;-76
2021/05/26 12:50:45;;;;;;;2.27;1.00;;;16.10;93.20;;;;;;8332447;28;20463;-78
2021/05/26 12:54:48;;;;;;;0.80;0.80;;;16.50;92.30;;;;;;8335401;28;20447;-77
2021/05/26 12:58:49;;;;;;;2.20;1.13;;;16.80;92.20;;;;;;8309958;28;20441;-76
2021/05/26 13:02:50;;;;;;;0.60;0.60;;;17.20;91.90;;;;;;8310545;28;20502;-78
2021/05/26 13:06:51;;;;;;;0.80;0.80;;;17.60;91.10;;;;;;8325807;28;20204;-76
2021/05/26 13:11:01;;;;;;;1.23;1.13;;;17.90;90.50;;;;;;8331413;28;20444;-77
2021/05/26 13:15:37;;;;;;;4.80;1.50;;;18.30;90.10;;;;;;8322888;28;20185;-77
2021/05/26 13:19:39;;;;;;;1.13;1.03;;;18.10;86.80;;;;;;8302313;28;20977;-77
2021/05/26 13:23:39;;;;;;;2.30;1.13;;;17.70;87.30;;;;;;8303618;28;20465;-77
2021/05/26 13:27:44;;;;;;;2.00;1.80;;;17.80;87.40;;;;;;8308000;28;20456;-77
2021/05/26 13:31:47;;;;;;;1.70;1.43;;;18.20;85.60;;;;;;8315477;28;20270;-76
2021/05/26 13:35:49;;;;;;;1.30;1.20;;;18.50;86.80;;;;;;8304486;28;20438;-77
2021/05/26 13:39:50;;;;;;;3.00;1.40;;;19.20;84.50;;;;;;8310414;28;20541;-77
2021/05/26 13:43:51;;;;;;;1.70;1.30;;;19.90;81.70;;;;;;8304146;28;20471;-79
2021/05/26 13:47:55;;;;;;;1.17;1.07;;;20.50;78.50;;;;;;8295851;28;20287;-76
2021/05/26 13:51:55;;;;;;;1.77;1.67;;;20.80;76.50;;;;;;8297786;28;21195;-78
2021/05/26 13:55:56;;;;;;;2.50;2.30;;;20.60;76.30;;;;;;8300476;28;20439;-77
2021/05/26 13:59:57;;;;;;;2.20;2.07;;;20.50;76.10;;;;;;8306155;28;20611;-76
2021/05/26 14:03:58;;;;;;;1.90;1.80;;;20.70;74.40;;;;;;8303173;28;20355;-78
2021/05/26 14:08:01;;;;;;;2.33;2.13;;;21.00;73.90;;;;;;8279185;28;20450;-76
2021/05/26 14:12:05;;;;;;;3.97;2.03;;;21.20;71.40;;;;;;8311455;28;20444;-77
2021/05/26 14:16:13;;;;;;;2.33;2.13;;;21.30;67.40;;;;;;8308533;28;20843;-77
2021/05/26 14:20:15;;;;;;;1.90;1.80;;;21.30;69.90;;;;;;8291803;28;20437;-76
2021/05/26 14:24:16;;;;;;;5.83;2.83;;;20.80;68.50;;;;;;8312541;28;20652;-77
2021/05/26 14:28:19;;;;;;;5.50;2.67;;;20.10;70.50;;;;;;8317734;28;20446;-76
2021/05/26 14:32:20;;;;;;;2.37;2.17;;;19.30;71.40;;;;;;8294093;28;20307;-77
2021/05/26 14:36:27;;;;;;;4.53;4.13;;;18.70;73.70;;;;;;8302508;28;20456;-76
2021/05/26 14:40:28;;;;;;;9.73;5.30;;;18.00;73.70;;;;;;8316735;28;20188;-77
2021/05/26 14:44:29;;;;;;;10.00;4.57;;;17.00;77.30;;;;;;8293369;28;20481;-75
2021/05/26 14:48:30;;;;;;;5.63;4.60;;;16.20;79.40;;;;;;8321698;28;20936;-77
2021/05/26 14:52:31;;;;;;;12.23;5.40;;;15.60;82.70;;;;;;8318794;28;20457;-76
2021/05/26 14:56:32;;;;;;;4.80;4.40;;;15.20;87.70;;;;;;8306823;28;20442;-76
2021/05/26 15:00:33;;;;;;;6.87;5.00;;;14.90;89.20;;;;;;8323489;28;20441;-77
2021/05/26 15:04:38;;;;;;;5.20;4.70;;;14.70;90.40;;;;;;8330642;28;20670;-77
2021/05/26 15:08:39;;;;;;;7.03;6.23;;;14.70;90.60;;;;;;8306664;28;20181;-77
2021/05/26 15:12:40;;;;;;;5.90;5.00;;;14.80;91.80;;;;;;8302901;28;20441;-77
2021/05/26 15:16:44;;;;;;;5.33;4.30;;;15.20;92.30;;;;;;8317120;28;20198;-77
2021/05/26 15:20:44;;;;;;;4.20;3.57;;;15.50;91.00;;;;;;8304379;28;21415;-75
2021/05/26 15:24:45;;;;;;;3.17;2.87;;;15.90;90.70;;;;;;8306136;28;20953;-76
2021/05/26 15:28:46;;;;;;;2.47;2.30;;;16.30;90.20;;;;;;8318904;28;20212;-78
2021/05/26 15:32:46;;;;;;;3.00;2.50;;;16.80;88.20;;;;;;8313365;28;20192;-75
2021/05/26 15:36:48;;;;;;;2.20;2.07;;;17.10;85.60;;;;;;8324426;28;20612;-76
2021/05/26 15:40:49;;;;;;;2.43;2.33;;;17.30;84.60;;;;;;8322446;28;20520;-75
2021/05/26 15:44:49;;;;;;;2.57;2.47;;;17.60;82.50;;;;;;8309021;28;20230;-74
2021/05/26 15:48:50;;;;;;;2.90;2.70;;;17.90;82.50;;;;;;8311186;28;20455;-76
2021/05/26 15:52:55;;;;;;;4.53;4.23;;;18.00;81.60;;;;;;8307358;28;20200;-75
2021/05/26 15:56:55;;;;;;;6.20;4.50;;;18.00;81.30;;;;;;8315158;28;20314;-74
2021/05/26 16:00:59;;;;;;;7.10;4.97;;;18.00;81.70;;;;;;8320963;28;20455;-76
2021/05/26 16:05:00;;;;;;;5.70;5.20;;;18.10;81.00;;;;;;8292365;28;20195;-74
2021/05/26 16:09:04;;;;;;;8.03;6.17;;;18.20;80.70;;;;;;8299618;28;20444;-74
2021/05/26 16:13:05;;;;;;;6.00;5.27;;;17.90;79.60;;;;;;8293226;28;20451;-74
2021/05/26 16:17:06;;;;;;;7.07;6.43;;;17.60;80.30;;;;;;8278110;28;20970;-75
2021/05/26 16:21:23;;;;;;;;;;;;;;;;;;;;;
2021/05/26 16:25:24;;;;;;;9.93;7.20;;;17.00;81.60;;;;;;8311106;28;20520;-74
2021/05/26 16:29:25;;;;;;;7.03;6.27;;;16.70;83.30;;;;;;8316110;28;20442;-74
2021/05/26 16:33:26;;;;;;;12.10;3.30;;;16.40;82.50;;;;;;8304481;28;20302;-76
2021/05/26 16:37:30;;;;;;;10.73;2.50;;;15.70;86.10;;;;;;8317796;28;20454;-75
2021/05/26 16:41:54;;;;;;;5.60;3.50;;;14.40;89.00;;;;;;8325571;28;20610;-78
2021/05/26 16:45:55;;;;;;;3.67;3.30;;;13.50;91.80;;;;;;8310039;28;20466;-76
2021/05/26 16:49:56;;;;;;;6.13;4.20;;;13.10;93.70;;;;;;8320085;28;20458;-75
2021/05/26 16:54:04;;;;;;;5.33;4.37;;;13.00;94.50;;;;;;8313959;28;20199;-75
2021/05/26 16:58:06;;;;;;;6.87;5.70;;;13.10;94.90;;;;;;8313618;28;20217;-75
2021/05/26 17:02:07;;;;;;;6.97;6.33;;;13.30;95.00;;;;;;8325942;28;20455;-76
2021/05/26 17:06:07;;;;;;;5.03;4.60;;;13.50;95.20;;;;;;8329535;28;20463;-77
2021/05/26 17:10:11;;;;;;;8.03;4.77;;;13.90;95.20;;;;;;8323529;28;20190;-76
2021/05/26 17:14:12;;;;;;;5.77;5.27;;;14.20;94.10;;;;;;8304916;28;20186;-76
2021/05/26 17:18:13;;;;;;;6.13;5.27;;;14.50;93.60;;;;;;8306526;28;21191;-76
2021/05/26 17:22:13;;;;;;;6.77;6.17;;;14.60;92.80;;;;;;8309856;28;21094;-76
2021/05/26 17:26:14;;;;;;;8.70;4.97;;;14.50;92.90;;;;;;8327157;28;20236;-76
2021/05/26 17:30:15;;;;;;;7.13;5.60;;;14.40;92.90;;;;;;8310502;28;20659;-75
2021/05/26 17:34:18;;;;;;;9.37;6.43;;;14.30;92.90;;;;;;8310225;28;20221;-75
2021/05/26 17:38:18;;;;;;;6.00;5.40;;;14.20;92.80;;;;;;8326886;28;20182;-75
2021/05/26 17:42:20;;;;;;;6.40;5.90;;;14.20;93.10;;;;;;8319669;28;20493;-77
2021/05/26 17:46:21;;;;;;;5.33;4.60;;;14.40;92.80;;;;;;8300941;28;20186;-76
2021/05/26 17:50:24;;;;;;;11.93;5.63;;;14.40;92.80;;;;;;8317580;28;20562;-76
2021/05/26 17:54:25;;;;;;;5.00;4.70;;;14.40;92.90;;;;;;8300300;28;20191;-76
2021/05/26 17:58:26;;;;;;;6.37;5.83;;;14.50;92.60;;;;;;8307424;28;20730;-77
2021/05/26 18:02:27;;;;;;;5.13;4.70;;;14.50;92.50;;;;;;8320386;28;20817;-77
2021/05/26 18:06:28;;;;;;;7.33;6.50;;;14.60;92.20;;;;;;8317657;28;20194;-77
2021/05/26 18:10:32;;;;;;;4.20;3.80;;;14.60;91.80;;;;;;8321794;28;20440;-75
2021/05/26 18:14:36;;;;;;;5.67;4.40;;;14.60;91.50;;;;;;8323599;28;20432;-77
2021/05/26 18:18:37;;;;;;;5.20;4.70;;;14.50;91.00;;;;;;8309083;28;20842;-78
2021/05/26 18:22:38;;;;;;;5.53;4.37;;;14.20;91.00;;;;;;8299514;28;20471;-76
2021/05/26 18:26:40;;;;;;;6.63;4.80;;;13.90;91.40;;;;;;8313357;28;20446;-77
2021/05/26 18:30:41;;;;;;;4.60;4.17;;;13.70;92.00;;;;;;8317575;28;20442;-76
2021/05/26 18:34:44;;;;;;;6.87;5.87;;;13.50;92.20;;;;;;8316275;28;20231;-76
2021/05/26 18:38:45;;;;;;;8.53;4.70;;;13.60;92.50;;;;;;8312231;28;20450;-78
2021/05/26 18:42:47;;;;;;;4.37;3.97;;;13.60;92.30;;;;;;8314483;28;20543;-76
2021/05/26 18:46:48;;;;;;;4.63;4.23;;;13.60;92.50;;;;;;8297550;28;20993;-76
2021/05/26 18:50:48;;;;;;;4.63;4.23;;;13.50;92.80;;;;;;8295892;28;21032;-77
2021/05/26 18:54:51;;;;;;;6.80;4.83;;;13.40;92.80;;;;;;8317725;28;20557;-76
2021/05/26 18:58:51;;;;;;;7.23;5.40;;;13.40;93.00;;;;;;8322535;28;20187;-76
2021/05/26 19:02:55;;;;;;;5.40;4.90;;;13.30;93.30;;;;;;8312272;28;20466;-77
2021/05/26 19:06:58;;;;;;;8.03;6.30;;;13.20;93.40;;;;;;8327492;28;20793;-77
2021/05/26 19:10:59;;;;;;;11.17;6.37;;;13.10;93.60;;;;;;8323804;28;20447;-77
2021/05/26 19:15:01;;;;;;;7.17;6.13;;;13.00;93.90;;;;;;8305103;28;20805;-74
2021/05/26 19:19:05;;;;;;;7.80;6.17;;;12.90;94.10;;;;;;8328187;28;20453;-75
2021/05/26 19:23:05;;;;;;;7.50;6.80;;;12.80;94.10;;;;;;8307687;28;20603;-75
2021/05/26 19:27:06;;;;;;;7.87;7.20;;;12.80;94.30;;;;;;8323694;28;20572;-76
2021/05/26 19:31:10;;;;;;;7.50;6.80;;;12.70;94.40;;;;;;8308460;28;20656;-76
2021/05/26 19:35:13;;;;;;;14.83;9.93;;;12.60;94.50;;;;;;8330284;28;20215;-76
2021/05/26 19:39:14;;;;;;;15.33;11.67;;;12.60;94.50;;;;;;8309897;28;20516;-76
2021/05/26 19:43:15;;;;;;;12.47;9.90;;;12.50;94.70;;;;;;8322237;28;20462;-75
2021/05/26 19:47:16;;;;;;;13.40;9.20;;;12.40;94.80;;;;;;8302543;28;20208;-76
2021/05/26 19:51:17;;;;;;;10.07;9.07;;;12.40;94.80;;;;;;8322899;28;20457;-77
2021/05/26 19:55:17;;;;;;;12.10;8.87;;;12.40;94.80;;;;;;8305990;28;20208;-75
2021/05/26 19:59:19;;;;;;;13.33;9.10;;;12.30;94.70;;;;;;8309603;28;20249;-77
2021/05/26 20:03:20;;;;;;;10.80;9.70;;;12.30;94.70;;;;;;8305284;28;20203;-76
2021/05/26 20:07:21;;;;;;;12.90;8.90;;;12.30;94.80;;;;;;8324019;28;20450;-76
2021/05/26 20:11:21;;;;;;;14.23;9.07;;;12.20;94.80;;;;;;8308124;28;20180;-76
2021/05/26 20:15:22;;;;;;;14.57;9.90;;;12.20;94.90;;;;;;8311081;28;20603;-75
2021/05/26 20:19:23;;;;;;;11.40;9.03;;;12.20;94.80;;;;;;8308836;28;20195;-76
2021/05/26 20:23:27;;;;;;;14.40;9.80;;;12.20;94.80;;;;;;8327788;28;20286;-76
2021/05/26 20:27:27;;;;;;;17.47;9.73;;;12.20;94.60;;;;;;8307290;28;20275;-76
2021/05/26 20:31:28;;;;;;;16.13;10.70;;;12.20;94.50;;;;;;8324904;28;20451;-75
2021/05/26 20:35:29;;;;;;;13.40;8.70;;;12.20;94.50;;;;;;8307279;28;20206;-77
2021/05/26 20:39:29;;;;;;;13.27;8.30;;;12.20;94.40;;;;;;8311492;28;20224;-76
2021/05/26 20:43:32;;;;;;;8.60;7.70;;;12.20;94.40;;;;;;8295270;28;20249;-77
2021/05/26 20:47:33;;;;;;;13.07;9.70;;;12.20;94.20;;;;;;8312510;28;20295;-75
2021/05/26 20:51:34;;;;;;;14.73;9.10;;;12.20;94.20;;;;;;8320044;28;20472;-77
2021/05/26 20:55:35;;;;;;;9.67;7.70;;;12.20;94.10;;;;;;8313763;28;20451;-76
2021/05/26 20:59:35;;;;;;;13.20;8.60;;;12.30;94.00;;;;;;8314851;28;20449;-76
2021/05/26 21:03:36;;;;;;;10.07;8.27;;;12.40;94.10;;;;;;8303361;28;20199;-76